Time;durP1;ratioP1;P1;durP2;ratioP2;P2;SDS_P1;SDS_P2;PMS_P1;PMS_P2;Temp;Humidity;BMP_temperature;BMP_pressure;BME280_temperature;BME280_humidity;BME280_pressure;Samples;Min_cycle;Max_cycle;Signal;HPM_P1;HPM_P2
2021/05/13 00:00:27;;;;;;;21.95;6.53;;;12.60;86.30;;;;;;5018653;28;20448;-53
2021/05/13 00:02:52;;;;;;;20.60;6.15;;;12.50;87.10;;;;;;5070221;28;20426;-57
2021/05/13 00:05:18;;;;;;;22.95;7.07;;;12.40;87.30;;;;;;5070728;28;20045;-55
2021/05/13 00:07:44;;;;;;;26.08;7.15;;;12.50;87.10;;;;;;5068600;28;20051;-57
2021/05/13 00:10:17;;;;;;;25.92;7.05;;;12.40;87.50;;;;;;5067718;28;20082;-55
2021/05/13 00:15:19;;;;;;;20.02;6.65;;;12.30;87.70;;;;;;5068274;28;20041;-55
2021/05/13 00:17:46;;;;;;;18.70;6.57;;;12.20;87.90;;;;;;5069393;28;20450;-59
2021/05/13 00:20:16;;;;;;;22.23;6.82;;;12.30;88.20;;;;;;5067958;28;20052;-57
2021/05/13 00:22:42;;;;;;;24.13;7.22;;;12.30;87.70;;;;;;5070139;28;20127;-57
2021/05/13 00:25:08;;;;;;;23.58;7.15;;;12.30;87.70;;;;;;5051811;28;20136;-57
2021/05/13 00:27:34;;;;;;;24.45;6.43;;;12.40;87.60;;;;;;5059746;28;20405;-57
2021/05/13 00:30:01;;;;;;;18.52;6.65;;;12.40;87.00;;;;;;5064184;28;20059;-57
2021/05/13 00:32:26;;;;;;;28.15;6.65;;;12.30;87.50;;;;;;5070147;28;20048;-57
2021/05/13 00:34:52;;;;;;;19.17;6.75;;;12.30;87.80;;;;;;5056437;28;20064;-56
2021/05/13 00:37:18;;;;;;;20.08;6.53;;;12.20;87.80;;;;;;5067393;28;20033;-56
2021/05/13 00:39:44;;;;;;;22.05;6.53;;;12.20;87.90;;;;;;5049972;28;20558;-55
2021/05/13 00:42:10;;;;;;;21.38;6.75;;;12.20;88.00;;;;;;5066949;28;20036;-57
2021/05/13 00:44:42;;;;;;;22.52;6.70;;;12.20;87.90;;;;;;5071381;28;20094;-57
2021/05/13 00:47:08;;;;;;;22.25;6.85;;;12.20;87.60;;;;;;5072594;28;20458;-57
2021/05/13 00:49:34;;;;;;;21.17;6.70;;;12.10;88.00;;;;;;5053252;28;20042;-56
2021/05/13 00:52:02;;;;;;;22.05;7.40;;;12.10;88.30;;;;;;5073683;28;20040;-56
2021/05/13 00:54:28;;;;;;;18.30;6.05;;;12.10;88.70;;;;;;5036214;28;20087;-57
2021/05/13 00:56:55;;;;;;;22.05;7.00;;;12.10;88.50;;;;;;5054903;28;20496;-57
2021/05/13 00:59:24;;;;;;;19.48;6.57;;;12.10;88.10;;;;;;5053060;28;20044;-56
2021/05/13 01:01:50;;;;;;;23.30;6.50;;;12.10;87.90;;;;;;5057429;28;20501;-56
2021/05/13 01:04:18;;;;;;;19.52;6.57;;;12.10;87.80;;;;;;5073531;28;20131;-57
2021/05/13 01:06:48;;;;;;;24.13;6.90;;;12.00;88.20;;;;;;5073231;28;20380;-57
2021/05/13 01:09:27;;;;;;;20.67;6.15;;;12.10;88.40;;;;;;5073087;28;20052;-57
2021/05/13 01:11:59;;;;;;;21.65;6.45;;;12.10;88.30;;;;;;5060917;28;20052;-57
2021/05/13 01:14:40;;;;;;;;;;;12.00;88.60;;;;;;5074622;28;20044;-56
2021/05/13 01:17:56;;;;;;;22.13;6.45;;;12.00;88.40;;;;;;5055454;28;19920;-57
2021/05/13 01:20:09;;;;;;;18.38;6.50;;;12.00;88.50;;;;;;5057775;28;20515;-56
2021/05/13 01:22:35;;;;;;;19.38;6.53;;;11.90;88.80;;;;;;5055447;28;20049;-57
2021/05/13 01:25:03;;;;;;;19.50;6.32;;;11.90;88.90;;;;;;5061359;28;20408;-57
2021/05/13 01:27:29;;;;;;;21.73;7.20;;;12.00;88.40;;;;;;5052666;28;20154;-57
2021/05/13 01:29:57;;;;;;;19.75;7.00;;;11.90;88.70;;;;;;5014466;28;20075;-58
2021/05/13 01:32:23;;;;;;;21.27;5.95;;;11.90;89.00;;;;;;5072656;28;20045;-56
2021/05/13 01:34:49;;;;;;;25.88;6.72;;;11.80;89.10;;;;;;5071911;28;20520;-57
2021/05/13 01:37:15;;;;;;;20.85;6.38;;;11.80;89.30;;;;;;5072430;28;20051;-57
2021/05/13 01:39:40;;;;;;;18.52;5.68;;;11.90;89.20;;;;;;5069190;28;20048;-57
2021/05/13 01:42:06;;;;;;;20.83;5.78;;;11.90;88.90;;;;;;5072353;28;20036;-57
2021/05/13 01:44:32;;;;;;;19.58;6.32;;;11.90;88.90;;;;;;5072132;28;20040;-57
2021/05/13 01:46:58;;;;;;;19.05;6.35;;;11.90;88.90;;;;;;5072921;28;20102;-57
2021/05/13 01:49:24;;;;;;;25.65;6.70;;;11.90;89.00;;;;;;5071918;28;20508;-55
2021/05/13 01:51:50;;;;;;;20.20;6.15;;;11.80;89.00;;;;;;5070166;28;20547;-57
2021/05/13 01:54:17;;;;;;;18.45;6.25;;;11.80;88.90;;;;;;5035589;28;20097;-57
2021/05/13 01:56:43;;;;;;;19.30;6.45;;;11.80;89.10;;;;;;5054062;28;20044;-56
2021/05/13 01:59:09;;;;;;;26.92;6.68;;;11.80;88.60;;;;;;5071191;28;20424;-56
2021/05/13 02:01:35;;;;;;;17.58;6.25;;;11.80;88.80;;;;;;5066769;28;20044;-57
2021/05/13 02:04:01;;;;;;;22.75;6.95;;;11.80;88.60;;;;;;5051960;28;20040;-55
2021/05/13 02:06:27;;;;;;;18.48;6.28;;;11.70;88.70;;;;;;5059157;28;20040;-55
2021/05/13 02:08:53;;;;;;;14.73;6.40;;;11.70;89.20;;;;;;5071292;28;20044;-56
2021/05/13 02:11:19;;;;;;;19.70;5.68;;;11.70;89.20;;;;;;5052142;28;20044;-55
2021/05/13 02:13:46;;;;;;;19.60;6.45;;;11.70;89.00;;;;;;5068708;28;20033;-55
2021/05/13 02:16:12;;;;;;;17.23;6.05;;;11.80;89.10;;;;;;5059947;28;20055;-55
2021/05/13 02:18:41;;;;;;;22.10;6.07;;;11.70;88.80;;;;;;5049780;28;20045;-55
2021/05/13 02:21:08;;;;;;;19.13;6.50;;;11.70;88.70;;;;;;5046965;28;20128;-55
2021/05/13 02:23:33;;;;;;;19.38;6.70;;;11.70;88.70;;;;;;5053787;28;20127;-55
2021/05/13 02:26:02;;;;;;;17.27;5.90;;;11.70;88.40;;;;;;5070942;28;20036;-57
2021/05/13 02:28:28;;;;;;;18.73;5.45;;;11.60;88.80;;;;;;5050931;28;20047;-57
2021/05/13 02:30:54;;;;;;;17.15;5.38;;;11.70;88.90;;;;;;5019385;28;20056;-56
2021/05/13 02:33:21;;;;;;;20.13;6.55;;;11.70;88.80;;;;;;5049429;28;20417;-58
2021/05/13 02:35:47;;;;;;;20.85;6.82;;;11.60;88.60;;;;;;5037403;28;20040;-57
2021/05/13 02:38:13;;;;;;;18.75;5.97;;;11.60;88.90;;;;;;5065389;28;20515;-56
2021/05/13 02:40:38;;;;;;;21.13;6.65;;;11.60;88.90;;;;;;5053503;28;20032;-55
2021/05/13 02:43:05;;;;;;;19.20;5.80;;;11.70;88.40;;;;;;5065757;28;20045;-56
2021/05/13 02:45:31;;;;;;;17.75;6.40;;;11.60;88.30;;;;;;5059747;28;20036;-57
2021/05/13 02:47:58;;;;;;;20.98;5.90;;;11.60;88.20;;;;;;5050537;28;20045;-54
2021/05/13 02:50:25;;;;;;;19.30;6.68;;;11.50;88.70;;;;;;5053988;28;20048;-57
2021/05/13 02:52:51;;;;;;;19.23;5.95;;;11.50;88.70;;;;;;5065654;28;20044;-57
2021/05/13 02:55:18;;;;;;;17.65;6.35;;;11.50;89.30;;;;;;5053736;28;20068;-57
2021/05/13 02:57:44;;;;;;;21.10;6.78;;;11.50;88.80;;;;;;5053293;28;20040;-57
2021/05/13 03:03:14;;;;;;;18.90;6.40;;;11.50;89.00;;;;;;4992196;28;20156;-57
2021/05/13 03:05:40;;;;;;;21.20;6.65;;;11.40;88.80;;;;;;5028533;28;20102;-57
2021/05/13 03:08:06;;;;;;;18.42;6.57;;;11.40;88.80;;;;;;5056795;28;20063;-57
2021/05/13 03:13:11;;;;;;;18.05;6.60;;;11.40;89.00;;;;;;5070383;28;20044;-57
2021/05/13 03:15:37;;;;;;;18.63;6.28;;;11.40;88.70;;;;;;5057640;28;20036;-57
2021/05/13 03:18:03;;;;;;;20.05;6.25;;;11.40;88.80;;;;;;5052406;28;20048;-56
2021/05/13 03:23:27;;;;;;;17.65;6.93;;;11.30;88.90;;;;;;5046168;28;20468;-57
2021/05/13 03:25:59;;;;;;;23.85;6.97;;;11.30;89.30;;;;;;5061665;28;20123;-57
2021/05/13 03:28:27;;;;;;;21.33;6.18;;;11.30;89.10;;;;;;5054485;28;20071;-57
2021/05/13 03:30:52;;;;;;;24.75;6.20;;;11.30;89.20;;;;;;5064030;28;20055;-58
2021/05/13 03:33:19;;;;;;;20.27;6.50;;;11.20;89.40;;;;;;5069531;28;20087;-57
2021/05/13 03:35:46;;;;;;;17.15;5.88;;;11.20;88.90;;;;;;5052656;28;20044;-57
2021/05/13 03:38:12;;;;;;;17.92;6.00;;;11.10;88.90;;;;;;5053558;28;20416;-56
2021/05/13 03:40:40;;;;;;;20.65;6.57;;;11.10;89.00;;;;;;5056949;28;20037;-57
2021/05/13 03:43:06;;;;;;;19.25;6.07;;;11.10;89.10;;;;;;5052716;28;20044;-57
2021/05/13 03:45:34;;;;;;;19.05;5.82;;;10.90;89.40;;;;;;5059029;28;20118;-56
2021/05/13 03:48:04;;;;;;;21.67;6.28;;;10.80;90.00;;;;;;5048004;28;20049;-56
2021/05/13 03:50:36;;;;;;;20.05;6.75;;;10.80;90.10;;;;;;5062571;28;20043;-57
2021/05/13 03:53:04;;;;;;;19.38;6.35;;;10.70;90.10;;;;;;5047948;28;20417;-56
2021/05/13 03:55:30;;;;;;;22.95;6.47;;;10.70;90.20;;;;;;5063512;28;20420;-56
2021/05/13 03:57:58;;;;;;;19.27;6.15;;;10.80;90.30;;;;;;5048612;28;20045;-56
2021/05/13 04:00:38;;;;;;;21.85;6.45;;;10.80;90.20;;;;;;5049678;28;20049;-57
2021/05/13 04:03:03;;;;;;;19.70;7.32;;;10.90;90.40;;;;;;5051457;28;20036;-57
2021/05/13 04:05:29;;;;;;;21.95;7.20;;;11.00;90.00;;;;;;5050634;28;20496;-57
2021/05/13 04:07:55;;;;;;;19.73;6.75;;;10.90;89.70;;;;;;5063291;28;20048;-57
2021/05/13 04:10:21;;;;;;;16.75;6.40;;;10.90;90.00;;;;;;5057637;28;20055;-57
2021/05/13 04:12:51;;;;;;;21.13;6.75;;;10.90;90.10;;;;;;5052568;28;20045;-57
2021/05/13 04:15:17;;;;;;;18.40;6.80;;;10.90;90.20;;;;;;5070391;28;20040;-56
2021/05/13 04:17:43;;;;;;;23.50;7.18;;;10.90;90.20;;;;;;5070282;28;20040;-56
2021/05/13 04:20:11;;;;;;;18.80;6.22;;;10.90;90.20;;;;;;5061883;28;20036;-56
2021/05/13 04:22:37;;;;;;;18.95;7.47;;;10.80;90.20;;;;;;5053017;28;20516;-56
2021/05/13 04:25:05;;;;;;;20.35;7.13;;;10.80;90.10;;;;;;5070235;28;20338;-57
2021/05/13 04:27:30;;;;;;;23.42;6.70;;;10.80;90.10;;;;;;5067657;28;20103;-56
2021/05/13 04:29:56;;;;;;;22.58;6.20;;;10.90;90.20;;;;;;5056008;28;20048;-56
2021/05/13 04:32:22;;;;;;;22.67;6.80;;;10.80;90.20;;;;;;5073579;28;20117;-55
2021/05/13 04:34:48;;;;;;;21.25;6.53;;;10.80;90.30;;;;;;5056117;28;20437;-57
2021/05/13 04:37:14;;;;;;;19.02;6.93;;;10.80;90.20;;;;;;5054339;28;20036;-55
2021/05/13 04:39:40;;;;;;;19.52;6.95;;;10.90;90.00;;;;;;5071994;28;20446;-56
2021/05/13 04:42:07;;;;;;;21.20;7.47;;;10.80;90.00;;;;;;5073693;28;20408;-56
2021/05/13 04:44:34;;;;;;;23.25;6.80;;;10.70;90.10;;;;;;5070935;28;20062;-57
2021/05/13 04:47:01;;;;;;;21.63;6.93;;;10.80;90.00;;;;;;5045009;28;20072;-57
2021/05/13 04:49:27;;;;;;;22.05;7.15;;;10.70;90.20;;;;;;5072282;28;20485;-56
2021/05/13 04:51:53;;;;;;;18.92;7.03;;;10.70;90.10;;;;;;5071564;28;20079;-57
2021/05/13 04:54:19;;;;;;;17.10;6.78;;;10.70;90.10;;;;;;5055300;28;20048;-56
2021/05/13 04:56:45;;;;;;;16.83;6.75;;;10.80;90.00;;;;;;5073443;28;20473;-56
2021/05/13 04:59:11;;;;;;;21.48;7.43;;;10.80;89.80;;;;;;5073251;28;20060;-56
2021/05/13 05:01:38;;;;;;;17.67;6.78;;;10.70;90.00;;;;;;5055088;28;20500;-56
2021/05/13 05:04:04;;;;;;;23.92;7.47;;;10.70;90.20;;;;;;5073795;28;20105;-56
2021/05/13 05:06:31;;;;;;;23.52;7.72;;;10.70;90.20;;;;;;5053609;28;20032;-56
2021/05/13 05:08:57;;;;;;;20.70;7.45;;;10.70;90.20;;;;;;5071334;28;20064;-57
2021/05/13 05:11:23;;;;;;;19.90;7.45;;;10.80;90.20;;;;;;5069855;28;20523;-56
2021/05/13 05:13:49;;;;;;;24.65;8.50;;;10.80;90.10;;;;;;5073023;28;20485;-56
2021/05/13 05:16:15;;;;;;;19.63;7.82;;;10.80;90.00;;;;;;5072037;28;20493;-57
2021/05/13 05:18:40;;;;;;;18.35;7.25;;;10.80;90.10;;;;;;5072494;28;20501;-57
2021/05/13 05:21:06;;;;;;;22.77;8.68;;;10.80;90.20;;;;;;5073202;28;20044;-56
2021/05/13 05:23:32;;;;;;;20.90;7.72;;;10.80;90.00;;;;;;5071584;28;20467;-57
2021/05/13 05:25:58;;;;;;;21.83;8.13;;;10.90;89.60;;;;;;5069768;28;20125;-56
2021/05/13 05:28:25;;;;;;;26.48;8.00;;;10.90;89.50;;;;;;5070423;28;20530;-56
2021/05/13 05:30:51;;;;;;;19.80;7.13;;;11.00;89.30;;;;;;5061258;28;20384;-56
2021/05/13 05:33:17;;;;;;;18.05;7.95;;;10.90;89.10;;;;;;5069403;28;20527;-57
2021/05/13 05:35:43;;;;;;;23.25;8.48;;;10.80;89.70;;;;;;5066096;28;20043;-58
2021/05/13 05:40:48;;;;;;;19.17;8.00;;;10.80;89.90;;;;;;5824131;22;20052;-57
2021/05/13 05:43:14;;;;;;;20.15;8.38;;;10.90;89.60;;;;;;5073364;28;20059;-57
2021/05/13 05:45:42;;;;;;;21.58;8.00;;;10.80;89.80;;;;;;5066072;28;20218;-58
2021/05/13 05:48:08;;;;;;;18.90;8.90;;;10.80;90.10;;;;;;5078162;28;20050;-58
2021/05/13 05:50:39;;;;;;;25.38;8.43;;;10.90;89.90;;;;;;5074363;28;20047;-58
2021/05/13 05:53:06;;;;;;;20.98;7.88;;;11.00;90.00;;;;;;5032186;28;20045;-58
2021/05/13 05:55:33;;;;;;;19.45;7.90;;;11.30;89.60;;;;;;5041364;28;20048;-58
2021/05/13 05:58:00;;;;;;;18.17;8.45;;;11.50;87.80;;;;;;5049089;28;20051;-58
2021/05/13 06:00:27;;;;;;;17.83;7.97;;;11.70;87.80;;;;;;5062391;28;20041;-58
2021/05/13 06:02:54;;;;;;;26.10;9.10;;;11.90;87.10;;;;;;5068124;28;20040;-58
2021/05/13 06:05:19;;;;;;;19.67;7.82;;;12.00;86.10;;;;;;5064383;28;20041;-58
2021/05/13 06:07:45;;;;;;;18.83;8.10;;;12.10;86.50;;;;;;5061442;28;20639;-59
2021/05/13 06:10:13;;;;;;;16.98;8.57;;;12.20;86.50;;;;;;5064681;28;20037;-58
2021/05/13 06:12:42;;;;;;;19.83;8.85;;;12.50;85.50;;;;;;5073796;28;20039;-57
2021/05/13 06:15:15;;;;;;;17.67;8.15;;;12.60;84.50;;;;;;5076530;28;20518;-58
2021/05/13 06:17:43;;;;;;;25.58;9.48;;;12.50;85.80;;;;;;5076415;28;20047;-58
2021/05/13 06:20:35;;;;;;;25.08;9.50;;;12.40;85.80;;;;;;5074082;28;20036;-57
2021/05/13 06:24:07;;;;;;;19.40;8.75;;;12.40;85.90;;;;;;5033688;28;20135;-58
2021/05/13 06:30:52;;;;;;;19.63;8.75;;;12.40;87.40;;;;;;5072584;28;20043;-57
2021/05/13 06:33:41;;;;;;;24.85;9.68;;;12.50;87.10;;;;;;5048542;28;20048;-57
2021/05/13 06:36:06;;;;;;;19.88;9.85;;;12.60;86.80;;;;;;5026681;28;20059;-58
2021/05/13 06:38:37;;;;;;;26.65;10.48;;;12.70;87.00;;;;;;5047738;28;20393;-57
2021/05/13 06:41:35;;;;;;;18.77;8.80;;;12.80;86.30;;;;;;5045757;28;20048;-57
2021/05/13 06:44:04;;;;;;;18.05;9.02;;;12.90;85.90;;;;;;5075369;28;20566;-57
2021/05/13 06:46:30;;;;;;;16.05;7.28;;;13.00;85.30;;;;;;5073746;28;20131;-58
2021/05/13 06:49:01;;;;;;;18.73;8.63;;;13.10;83.50;;;;;;5069860;28;20066;-63
2021/05/13 06:51:35;;;;;;;18.92;8.07;;;13.30;82.70;;;;;;5057344;28;20044;-56
2021/05/13 06:54:00;;;;;;;19.38;8.30;;;13.30;82.30;;;;;;5069565;28;20045;-59
2021/05/13 06:56:34;;;;;;;19.20;8.23;;;13.40;81.20;;;;;;5056595;28;20040;-57
2021/05/13 06:59:12;;;;;;;17.52;7.63;;;13.40;82.10;;;;;;5040524;28;20072;-59
2021/05/13 07:01:38;;;;;;;21.63;8.60;;;13.50;80.60;;;;;;5055284;28;20033;-58
2021/05/13 07:04:34;;;;;;;21.15;7.93;;;13.60;80.50;;;;;;5059635;28;20048;-59
2021/05/13 07:07:12;;;;;;;16.13;7.32;;;13.70;79.40;;;;;;5065389;28;20040;-55
2021/05/13 07:09:52;;;;;;;18.55;7.22;;;13.80;79.70;;;;;;5069141;28;20037;-54
2021/05/13 07:12:19;;;;;;;18.50;7.20;;;13.90;79.20;;;;;;5057171;28;20412;-59
2021/05/13 07:14:45;;;;;;;15.75;6.78;;;13.90;79.20;;;;;;5072736;28;20051;-59
2021/05/13 07:17:11;;;;;;;17.10;6.80;;;13.90;77.60;;;;;;5067362;28;20041;-58
2021/05/13 07:19:36;;;;;;;20.45;6.25;;;13.90;77.40;;;;;;5065416;28;20071;-58
2021/05/13 07:22:02;;;;;;;18.20;6.30;;;13.90;77.30;;;;;;5069954;28;20040;-58
2021/05/13 07:24:28;;;;;;;13.43;6.20;;;13.80;78.20;;;;;;5072334;28;20036;-59
2021/05/13 07:26:54;;;;;;;17.50;6.28;;;13.70;79.10;;;;;;5060639;28;20048;-59
2021/05/13 07:29:19;;;;;;;17.27;5.97;;;13.70;79.30;;;;;;5068618;28;20163;-58
2021/05/13 07:31:45;;;;;;;17.92;6.50;;;13.80;78.40;;;;;;5068298;28;20037;-59
2021/05/13 07:34:12;;;;;;;15.25;6.30;;;13.90;77.70;;;;;;5073493;28;20045;-59
2021/05/13 07:36:38;;;;;;;19.45;6.43;;;14.00;78.70;;;;;;5068778;28;20121;-58
2021/05/13 07:39:05;;;;;;;22.42;5.82;;;14.20;77.90;;;;;;5071470;28;20044;-59
2021/05/13 07:41:30;;;;;;;20.55;5.80;;;14.40;77.30;;;;;;5073561;28;20044;-56
2021/05/13 07:43:57;;;;;;;17.58;5.63;;;14.60;77.80;;;;;;5068193;28;20143;-59
2021/05/13 07:46:26;;;;;;;14.05;5.15;;;14.70;77.70;;;;;;5072825;28;20055;-58
2021/05/13 07:48:52;;;;;;;17.15;5.55;;;14.90;74.70;;;;;;5066541;28;20044;-55
2021/05/13 07:51:19;;;;;;;16.48;5.45;;;15.00;74.10;;;;;;5045563;28;20040;-58
2021/05/13 07:53:45;;;;;;;12.80;4.63;;;15.10;75.30;;;;;;5074057;28;20144;-59
2021/05/13 07:56:11;;;;;;;16.23;5.43;;;15.20;74.70;;;;;;5071594;28;20067;-56
2021/05/13 07:58:36;;;;;;;15.00;5.20;;;15.30;74.20;;;;;;5077120;28;20051;-57
2021/05/13 08:01:02;;;;;;;21.70;6.65;;;15.40;73.70;;;;;;5067212;28;20037;-59
2021/05/13 08:03:28;;;;;;;16.00;4.97;;;15.40;72.90;;;;;;5075513;28;20076;-56
2021/05/13 08:05:53;;;;;;;17.40;5.80;;;15.30;71.80;;;;;;5071594;28;20055;-59
2021/05/13 08:08:19;;;;;;;15.13;5.15;;;15.20;73.30;;;;;;5068542;28;20047;-57
2021/05/13 08:10:45;;;;;;;18.10;5.82;;;15.10;73.40;;;;;;5072877;28;20539;-59
2021/05/13 08:13:10;;;;;;;17.40;5.32;;;15.20;72.50;;;;;;5075742;28;20040;-59
2021/05/13 08:15:36;;;;;;;14.38;5.63;;;15.10;72.50;;;;;;5073399;28;20045;-59
2021/05/13 08:18:02;;;;;;;13.82;5.40;;;15.00;74.20;;;;;;5066158;28;20041;-59
2021/05/13 08:20:27;;;;;;;17.88;6.07;;;14.80;73.80;;;;;;5056076;28;20086;-59
2021/05/13 08:22:53;;;;;;;9.48;4.80;;;14.80;73.40;;;;;;5062767;28;20538;-59
2021/05/13 08:25:19;;;;;;;13.50;5.63;;;14.80;74.50;;;;;;5072034;28;20029;-60
2021/05/13 08:27:47;;;;;;;14.75;6.10;;;14.80;75.00;;;;;;5068268;28;20071;-60
2021/05/13 08:30:13;;;;;;;14.38;5.35;;;14.90;73.00;;;;;;5064520;28;20037;-59
2021/05/13 08:32:39;;;;;;;13.63;5.40;;;14.80;74.40;;;;;;5068131;28;20044;-59
2021/05/13 08:35:05;;;;;;;18.45;5.82;;;14.70;74.20;;;;;;5069216;28;20082;-58
2021/05/13 08:37:31;;;;;;;13.93;5.55;;;14.70;72.70;;;;;;5073641;28;20385;-59
2021/05/13 08:39:57;;;;;;;17.05;5.50;;;14.70;73.20;;;;;;5055808;28;20048;-59
2021/05/13 08:42:22;;;;;;;16.90;6.30;;;14.70;72.50;;;;;;5063670;28;20033;-59
2021/05/13 08:44:49;;;;;;;16.63;5.55;;;14.70;73.20;;;;;;5070772;28;20044;-59
2021/05/13 08:47:14;;;;;;;16.73;6.40;;;14.70;73.60;;;;;;5074505;28;20108;-59
2021/05/13 08:49:41;;;;;;;11.48;5.40;;;14.70;74.30;;;;;;5073045;28;20128;-58
2021/05/13 08:52:19;;;;;;;15.02;5.68;;;14.90;75.30;;;;;;5068949;28;20055;-59
2021/05/13 08:55:00;;;;;;;12.10;5.20;;;15.20;73.80;;;;;;5075833;28;20041;-59
2021/05/13 08:57:27;;;;;;;15.13;5.82;;;15.40;70.80;;;;;;5072996;28;20043;-58
2021/05/13 08:59:54;;;;;;;15.70;5.55;;;15.50;70.60;;;;;;5072735;28;20037;-58
2021/05/13 09:02:20;;;;;;;13.63;5.10;;;15.50;71.10;;;;;;5073477;28;20040;-59
2021/05/13 09:04:48;;;;;;;11.50;5.07;;;15.40;71.80;;;;;;5072579;28;20048;-59
2021/05/13 09:07:22;;;;;;;10.50;4.65;;;15.60;72.40;;;;;;5074890;28;20212;-59
2021/05/13 09:10:13;;;;;;;13.32;4.30;;;15.70;70.40;;;;;;5067160;28;20058;-59
2021/05/13 09:12:48;;;;;;;12.07;4.28;;;15.90;68.70;;;;;;5058981;28;20036;-60
2021/05/13 09:15:19;;;;;;;10.75;4.22;;;16.00;66.80;;;;;;5071178;28;20044;-59
2021/05/13 09:17:48;;;;;;;11.68;4.78;;;16.10;68.10;;;;;;5069369;28;20419;-59
2021/05/13 09:20:24;;;;;;;11.63;4.60;;;16.10;66.40;;;;;;5060852;28;20033;-60
2021/05/13 09:22:50;;;;;;;11.88;4.43;;;16.20;66.80;;;;;;5061665;28;20398;-59
2021/05/13 09:25:16;;;;;;;13.93;4.25;;;16.40;65.60;;;;;;5068452;28;20056;-60
2021/05/13 09:27:43;;;;;;;12.00;4.32;;;16.40;66.40;;;;;;5074428;28;20051;-59
2021/05/13 09:30:08;;;;;;;9.98;3.72;;;16.40;64.90;;;;;;5072060;28;20037;-59
2021/05/13 09:32:36;;;;;;;12.43;4.78;;;16.50;65.40;;;;;;5066850;28;20112;-60
2021/05/13 09:35:05;;;;;;;8.43;3.72;;;16.60;65.40;;;;;;5069735;28;20048;-60
2021/05/13 09:37:43;;;;;;;14.20;3.58;;;16.70;65.00;;;;;;5072057;28;20032;-58
2021/05/13 09:40:11;;;;;;;9.95;4.25;;;16.90;64.40;;;;;;5072215;28;20530;-59
2021/05/13 09:42:38;;;;;;;10.85;3.60;;;16.90;62.40;;;;;;5070942;28;20041;-59
2021/05/13 09:45:08;;;;;;;9.23;4.00;;;16.90;62.60;;;;;;5075594;28;20123;-59
2021/05/13 09:47:36;;;;;;;9.45;3.22;;;17.00;61.80;;;;;;5077117;28;20056;-60
2021/05/13 09:50:32;;;;;;;10.38;3.35;;;17.00;63.00;;;;;;5074625;28;20044;-59
2021/05/13 09:53:00;;;;;;;8.80;3.03;;;17.10;63.20;;;;;;5069579;28;20534;-59
2021/05/13 09:55:35;;;;;;;10.60;3.30;;;17.20;61.50;;;;;;5054896;28;20041;-58
2021/05/13 09:58:06;;;;;;;10.10;3.50;;;17.30;61.30;;;;;;5070742;28;20488;-60
2021/05/13 10:00:36;;;;;;;9.70;2.80;;;17.30;60.90;;;;;;5074937;28;20043;-60
2021/05/13 10:03:07;;;;;;;6.82;3.03;;;17.40;61.20;;;;;;5055305;28;20052;-59
2021/05/13 10:05:33;;;;;;;9.55;3.80;;;17.50;59.90;;;;;;5072583;28;20040;-59
2021/05/13 10:07:59;;;;;;;9.30;3.60;;;17.50;57.90;;;;;;5077335;28;20115;-59
2021/05/13 10:10:24;;;;;;;13.38;3.70;;;17.50;59.40;;;;;;5066138;28;20415;-59
2021/05/13 10:12:53;;;;;;;8.25;3.45;;;17.50;59.70;;;;;;5070949;28;20174;-59
2021/05/13 10:15:19;;;;;;;13.10;3.80;;;17.50;56.80;;;;;;5058406;28;20047;-60
2021/05/13 10:17:46;;;;;;;8.10;3.42;;;17.20;58.70;;;;;;5059985;28;20147;-60
2021/05/13 10:20:22;;;;;;;7.60;2.83;;;17.10;58.40;;;;;;5062982;28;20040;-60
2021/05/13 10:22:48;;;;;;;8.13;2.83;;;17.20;60.00;;;;;;5056130;28;20044;-60
2021/05/13 10:25:24;;;;;;;7.95;2.85;;;17.40;59.00;;;;;;5065364;28;20040;-58
2021/05/13 10:27:52;;;;;;;8.50;2.72;;;17.30;58.50;;;;;;5073997;28;20454;-58
2021/05/13 10:30:21;;;;;;;8.57;2.83;;;17.20;57.40;;;;;;5061876;28;20036;-59
2021/05/13 10:33:13;;;;;;;4.93;2.50;;;17.10;57.90;;;;;;5069744;28;20070;-59
2021/05/13 10:35:40;;;;;;;8.18;2.78;;;16.90;58.50;;;;;;5075627;28;20446;-58
2021/05/13 10:38:13;;;;;;;9.77;2.75;;;16.70;59.40;;;;;;5068995;28;20044;-60
2021/05/13 10:41:04;;;;;;;9.25;2.70;;;16.70;59.30;;;;;;5052033;28;20370;-60
2021/05/13 10:43:33;;;;;;;8.20;2.33;;;16.70;58.70;;;;;;5074413;28;20095;-57
2021/05/13 10:45:59;;;;;;;7.57;3.00;;;16.60;59.40;;;;;;5073571;28;20454;-56
2021/05/13 10:48:37;;;;;;;7.75;2.50;;;16.60;58.60;;;;;;5075077;28;20075;-59
2021/05/13 10:51:08;;;;;;;6.85;2.42;;;16.60;58.70;;;;;;5072635;28;20089;-59
2021/05/13 10:53:35;;;;;;;9.27;2.63;;;16.50;58.60;;;;;;5072559;28;20094;-58
2021/05/13 10:56:41;;;;;;;6.22;2.45;;;16.40;58.50;;;;;;5054015;28;20287;-58
2021/05/13 10:59:08;;;;;;;6.75;2.38;;;16.40;58.80;;;;;;5029443;28;20044;-59
2021/05/13 11:01:43;;;;;;;7.65;2.85;;;16.40;58.70;;;;;;5071909;28;20054;-58
2021/05/13 11:04:39;;;;;;;6.25;2.30;;;16.30;59.80;;;;;;5072837;28;20041;-58
2021/05/13 11:07:24;;;;;;;8.65;2.40;;;16.20;60.20;;;;;;5073767;28;20094;-57
2021/05/13 11:09:57;;;;;;;9.65;2.50;;;16.30;60.00;;;;;;5070397;28;20051;-59
2021/05/13 11:12:27;;;;;;;10.32;2.65;;;16.40;57.10;;;;;;5067289;28;20504;-58
2021/05/13 11:17:59;;;;;;;8.45;2.60;;;16.30;58.30;;;;;;5054910;28;20512;-58
2021/05/13 11:20:34;;;;;;;8.35;2.63;;;16.40;57.60;;;;;;5057752;28;20040;-60
2021/05/13 11:23:14;;;;;;;8.23;2.20;;;16.30;57.40;;;;;;5066000;28;20048;-59
2021/05/13 11:25:46;;;;;;;7.18;2.35;;;16.20;58.20;;;;;;5071339;28;20087;-59
2021/05/13 11:28:27;;;;;;;6.07;2.20;;;16.10;59.10;;;;;;5067621;28;20041;-58
2021/05/13 11:31:07;;;;;;;9.32;3.03;;;16.10;58.50;;;;;;5057538;28;20048;-57
2021/05/13 11:33:42;;;;;;;10.75;2.55;;;16.20;58.30;;;;;;5072133;28;20044;-59
2021/05/13 11:36:10;;;;;;;7.47;2.75;;;16.10;57.90;;;;;;5071490;28;20107;-58
2021/05/13 11:38:37;;;;;;;9.15;2.40;;;16.20;57.60;;;;;;5072291;28;20036;-59
2021/05/13 11:41:04;;;;;;;5.90;2.05;;;16.30;57.30;;;;;;5072009;28;20110;-58
2021/05/13 11:43:39;;;;;;;6.55;1.85;;;16.40;56.20;;;;;;5061984;28;20040;-58
2021/05/13 11:46:15;;;;;;;6.53;2.15;;;16.30;57.60;;;;;;5053106;28;20045;-57
2021/05/13 11:48:45;;;;;;;6.65;2.45;;;16.30;57.20;;;;;;5062050;28;20082;-58
2021/05/13 11:51:14;;;;;;;8.80;2.40;;;16.30;57.20;;;;;;5069295;28;20109;-57
2021/05/13 11:53:42;;;;;;;7.25;2.40;;;16.40;57.10;;;;;;5052096;28;20128;-57
2021/05/13 11:56:10;;;;;;;9.90;2.80;;;16.30;57.00;;;;;;5067752;28;20496;-53
2021/05/13 11:58:45;;;;;;;6.63;2.67;;;16.20;58.00;;;;;;5069231;28;20093;-57
2021/05/13 12:01:22;;;;;;;6.72;2.70;;;16.40;57.40;;;;;;5052053;28;20033;-54
2021/05/13 12:04:09;;;;;;;9.80;2.40;;;16.40;57.40;;;;;;5068192;28;20040;-56
2021/05/13 12:06:41;;;;;;;9.63;2.70;;;16.40;56.30;;;;;;5056532;28;20123;-58
2021/05/13 12:09:06;;;;;;;;;;;16.40;57.80;;;;;;5070450;28;20051;-55
2021/05/13 12:11:32;;;;;;;8.65;2.65;;;16.40;58.30;;;;;;5070926;28;19924;-57
2021/05/13 12:13:59;;;;;;;7.22;2.10;;;16.40;57.00;;;;;;5069397;28;20047;-60
2021/05/13 12:16:33;;;;;;;5.57;2.10;;;16.60;55.90;;;;;;5071429;28;20048;-59
2021/05/13 12:19:04;;;;;;;9.07;2.40;;;16.70;56.50;;;;;;5057791;28;20111;-59
2021/05/13 12:21:30;;;;;;;7.38;2.45;;;16.70;55.80;;;;;;5070416;28;20036;-59
2021/05/13 12:23:57;;;;;;;7.50;2.42;;;16.70;57.30;;;;;;5071849;28;20516;-59
2021/05/13 12:26:26;;;;;;;6.10;3.00;;;16.80;57.70;;;;;;5065785;28;20037;-59
2021/05/13 12:28:53;;;;;;;10.00;2.80;;;17.00;56.40;;;;;;5054438;28;20106;-60
2021/05/13 12:31:24;;;;;;;9.20;2.60;;;17.00;57.10;;;;;;5054255;28;20045;-59
2021/05/13 12:33:50;;;;;;;9.00;2.85;;;17.00;55.90;;;;;;5065639;28;20067;-59
2021/05/13 12:36:16;;;;;;;7.32;2.78;;;17.10;57.40;;;;;;5064381;28;20076;-59
2021/05/13 12:38:43;;;;;;;8.15;2.90;;;17.00;56.90;;;;;;5068209;28;20432;-59
2021/05/13 12:41:12;;;;;;;7.25;2.58;;;17.10;55.50;;;;;;5065961;28;20041;-60
2021/05/13 12:43:39;;;;;;;10.13;2.92;;;17.10;56.80;;;;;;5068571;28;20040;-54
2021/05/13 12:46:25;;;;;;;9.10;2.80;;;17.10;55.60;;;;;;5070143;28;20090;-52
2021/05/13 12:48:53;;;;;;;7.70;2.88;;;17.30;55.40;;;;;;5068919;28;20070;-58
2021/05/13 12:51:21;;;;;;;8.48;2.53;;;17.50;54.40;;;;;;5065491;28;20570;-56
2021/05/13 12:53:52;;;;;;;5.13;2.28;;;17.70;53.90;;;;;;5062487;28;20417;-56
2021/05/13 12:56:23;;;;;;;7.80;2.67;;;17.90;54.10;;;;;;5074860;28;20104;-55
2021/05/13 12:59:11;;;;;;;6.50;2.25;;;18.10;55.20;;;;;;5075751;28;20063;-55
2021/05/13 13:01:43;;;;;;;6.43;2.33;;;18.30;54.70;;;;;;5069355;28;20047;-58
2021/05/13 13:04:11;;;;;;;8.25;2.88;;;18.50;54.00;;;;;;5059046;28;20072;-58
2021/05/13 13:06:49;;;;;;;7.47;2.67;;;18.60;51.60;;;;;;5075778;28;20072;-56
2021/05/13 13:09:37;;;;;;;8.20;3.00;;;18.60;51.40;;;;;;5073128;28;20420;-57
2021/05/13 13:12:04;;;;;;;87.97;77.55;;;18.50;52.30;;;;;;5068544;28;20096;-56